AF1 YMML-YSSY
Flight info
| Callsign | AF1 |
|---|---|
| Flight time | 1h 5m |
| Altitude | 37000 |
| Route | ML H129 DOSEL Y59 RIVET |
| Aircraft | B748/H-SDE3FGHIM1M2RWXY/LB1 |
Departure
| Time | 2026-05-04 01:25 |
|---|---|
| Airport | Melbourne Airport (YMML) |
Arrival
| Time | 2026-05-04 02:30 |
|---|---|
| Airport | Sydney Kingsford Smith International Airport (YSSY) |
| Time | Latitude | Longitude | Altitude | Speed | Heading |
|---|---|---|---|---|---|
| 2026-05-04 01:14 | -37.66767 | 144.84455 | 371 ft | 0 kts | 169° |
| 2026-05-04 01:16 | -37.66763 | 144.84454 | 371 ft | 2 kts | 169° |
| 2026-05-04 01:16 | -37.66747 | 144.84451 | 371 ft | 2 kts | 177° |
| 2026-05-04 01:17 | -37.66731 | 144.84450 | 371 ft | 2 kts | 182° |
| 2026-05-04 01:17 | -37.66714 | 144.84452 | 370 ft | 2 kts | 192° |
| 2026-05-04 01:17 | -37.66699 | 144.84458 | 369 ft | 2 kts | 206° |
| 2026-05-04 01:17 | -37.66684 | 144.84468 | 368 ft | 2 kts | 223° |
| 2026-05-04 01:18 | -37.66673 | 144.84483 | 371 ft | 2 kts | 239° |
| 2026-05-04 01:18 | -37.66666 | 144.84502 | 366 ft | 2 kts | 253° |
| 2026-05-04 01:18 | -37.66663 | 144.84518 | 365 ft | 1 kts | 261° |
| 2026-05-04 01:18 | -37.66662 | 144.84521 | 364 ft | 0 kts | 262° |
| 2026-05-04 01:21 | -37.66663 | 144.84514 | 365 ft | 3 kts | 262° |
| 2026-05-04 01:21 | -37.66669 | 144.84454 | 371 ft | 11 kts | 262° |
| 2026-05-04 01:22 | -37.66687 | 144.84312 | 378 ft | 22 kts | 262° |
| 2026-05-04 01:22 | -37.66715 | 144.84075 | 389 ft | 33 kts | 255° |
| 2026-05-04 01:22 | -37.66819 | 144.83986 | 391 ft | 17 kts | 165° |
| 2026-05-04 01:22 | -37.66986 | 144.84021 | 387 ft | 33 kts | 173° |
| 2026-05-04 01:23 | -37.67274 | 144.84074 | 378 ft | 51 kts | 170° |
| 2026-05-04 01:23 | -37.67664 | 144.84147 | 372 ft | 54 kts | 171° |
| 2026-05-04 01:23 | -37.67848 | 144.84142 | 368 ft | 12 kts | 236° |
| 2026-05-04 01:23 | -37.67866 | 144.84032 | 366 ft | 17 kts | 276° |
| 2026-05-04 01:24 | -37.67737 | 144.83950 | 367 ft | 43 kts | 350° |
| 2026-05-04 01:24 | -37.67208 | 144.83846 | 387 ft | 108 kts | 351° |
| 2026-05-04 01:24 | -37.66264 | 144.83677 | 405 ft | 164 kts | 353° |
| 2026-05-04 01:24 | -37.64992 | 144.83462 | 733 ft | 194 kts | 352° |
| 2026-05-04 01:25 | -37.63646 | 144.83178 | 1448 ft | 205 kts | 349° |
| 2026-05-04 01:25 | -37.62207 | 144.82879 | 2191 ft | 209 kts | 351° |
| 2026-05-04 01:25 | -37.60723 | 144.82590 | 2523 ft | 222 kts | 351° |
| 2026-05-04 01:25 | -37.59149 | 144.82535 | 3043 ft | 231 kts | 7° |
| 2026-05-04 01:26 | -37.57622 | 144.83183 | 3691 ft | 238 kts | 20° |
| 2026-05-04 01:26 | -37.56116 | 144.84110 | 4369 ft | 241 kts | 20° |
| 2026-05-04 01:26 | -37.54597 | 144.85036 | 5066 ft | 243 kts | 19° |
| 2026-05-04 01:26 | -37.53060 | 144.85969 | 5729 ft | 246 kts | 19° |
| 2026-05-04 01:27 | -37.51503 | 144.86913 | 6356 ft | 249 kts | 18° |
| 2026-05-04 01:27 | -37.49931 | 144.87867 | 6894 ft | 253 kts | 19° |
| 2026-05-04 01:27 | -37.48349 | 144.88826 | 7408 ft | 257 kts | 19° |
| 2026-05-04 01:27 | -37.46740 | 144.89803 | 7925 ft | 261 kts | 19° |
| 2026-05-04 01:28 | -37.45062 | 144.90819 | 8458 ft | 265 kts | 19° |
| 2026-05-04 01:28 | -37.43521 | 144.92116 | 8939 ft | 279 kts | 39° |
| 2026-05-04 01:28 | -37.42277 | 144.94074 | 9432 ft | 289 kts | 48° |
| 2026-05-04 01:28 | -37.41113 | 144.96165 | 9902 ft | 294 kts | 49° |
| 2026-05-04 01:29 | -37.39933 | 144.98298 | 10286 ft | 300 kts | 48° |
| 2026-05-04 01:29 | -37.38709 | 145.00460 | 10558 ft | 310 kts | 48° |
| 2026-05-04 01:29 | -37.37427 | 145.02710 | 10781 ft | 324 kts | 48° |
| 2026-05-04 01:29 | -37.36083 | 145.05084 | 10965 ft | 339 kts | 49° |
| 2026-05-04 01:30 | -37.34695 | 145.07547 | 11305 ft | 349 kts | 49° |
| 2026-05-04 01:30 | -37.33290 | 145.10036 | 11725 ft | 356 kts | 49° |
| 2026-05-04 01:30 | -37.31834 | 145.12604 | 12186 ft | 362 kts | 49° |
| 2026-05-04 01:30 | -37.30358 | 145.15205 | 12684 ft | 366 kts | 49° |
| 2026-05-04 01:31 | -37.28870 | 145.17829 | 13199 ft | 371 kts | 49° |
| 2026-05-04 01:31 | -37.27363 | 145.20483 | 13714 ft | 375 kts | 49° |
| 2026-05-04 01:31 | -37.25860 | 145.23128 | 14176 ft | 378 kts | 49° |
| 2026-05-04 01:31 | -37.24321 | 145.25835 | 14654 ft | 381 kts | 49° |
| 2026-05-04 01:32 | -37.22767 | 145.28563 | 15125 ft | 384 kts | 49° |
| 2026-05-04 01:32 | -37.21212 | 145.31293 | 15607 ft | 386 kts | 49° |
| 2026-05-04 01:32 | -37.19638 | 145.34053 | 16107 ft | 388 kts | 48° |
| 2026-05-04 01:32 | -37.18080 | 145.36783 | 16595 ft | 390 kts | 48° |
| 2026-05-04 01:33 | -37.16493 | 145.39562 | 17109 ft | 393 kts | 48° |
| 2026-05-04 01:33 | -37.14891 | 145.42362 | 17629 ft | 395 kts | 48° |
| 2026-05-04 01:33 | -37.13282 | 145.45168 | 18095 ft | 398 kts | 48° |
| 2026-05-04 01:33 | -37.11677 | 145.47966 | 18531 ft | 400 kts | 48° |
| 2026-05-04 01:34 | -37.10048 | 145.50807 | 18966 ft | 402 kts | 48° |
| 2026-05-04 01:34 | -37.08405 | 145.53667 | 19399 ft | 404 kts | 47° |
| 2026-05-04 01:34 | -37.06761 | 145.56528 | 19825 ft | 406 kts | 47° |
| 2026-05-04 01:34 | -37.05107 | 145.59403 | 20252 ft | 408 kts | 47° |
| 2026-05-04 01:35 | -37.03461 | 145.62261 | 20675 ft | 410 kts | 47° |
| 2026-05-04 01:35 | -37.01782 | 145.65174 | 21059 ft | 411 kts | 47° |
| 2026-05-04 01:35 | -37.00102 | 145.68087 | 21467 ft | 413 kts | 47° |
| 2026-05-04 01:35 | -36.98414 | 145.71011 | 21866 ft | 415 kts | 47° |
| 2026-05-04 01:36 | -36.96719 | 145.73944 | 22266 ft | 417 kts | 47° |
| 2026-05-04 01:36 | -36.95031 | 145.76862 | 22644 ft | 419 kts | 46° |
| 2026-05-04 01:36 | -36.93319 | 145.79822 | 22991 ft | 421 kts | 46° |
| 2026-05-04 01:36 | -36.91593 | 145.82800 | 23364 ft | 422 kts | 46° |
| 2026-05-04 01:37 | -36.89863 | 145.85783 | 23706 ft | 424 kts | 46° |
| 2026-05-04 01:37 | -36.88128 | 145.88772 | 23986 ft | 426 kts | 46° |
| 2026-05-04 01:37 | -36.86381 | 145.91781 | 24266 ft | 428 kts | 46° |
| 2026-05-04 01:37 | -36.84649 | 145.94760 | 24535 ft | 430 kts | 46° |
| 2026-05-04 01:38 | -36.82868 | 145.97821 | 24834 ft | 432 kts | 46° |
| 2026-05-04 01:38 | -36.81116 | 146.00827 | 25084 ft | 433 kts | 46° |
| 2026-05-04 01:38 | -36.79336 | 146.03880 | 25358 ft | 435 kts | 46° |
| 2026-05-04 01:38 | -36.77546 | 146.06949 | 25613 ft | 437 kts | 46° |
| 2026-05-04 01:39 | -36.75752 | 146.10020 | 25870 ft | 438 kts | 46° |
| 2026-05-04 01:39 | -36.73955 | 146.13095 | 26137 ft | 440 kts | 46° |
| 2026-05-04 01:39 | -36.72163 | 146.16158 | 26409 ft | 442 kts | 46° |
| 2026-05-04 01:39 | -36.70343 | 146.19267 | 26681 ft | 444 kts | 46° |
| 2026-05-04 01:40 | -36.68516 | 146.22383 | 26965 ft | 445 kts | 46° |
| 2026-05-04 01:40 | -36.66683 | 146.25507 | 27245 ft | 447 kts | 46° |
| 2026-05-04 01:40 | -36.64856 | 146.28618 | 27521 ft | 449 kts | 46° |
| 2026-05-04 01:40 | -36.63004 | 146.31769 | 27788 ft | 451 kts | 46° |
| 2026-05-04 01:41 | -36.61146 | 146.34930 | 28023 ft | 453 kts | 45° |
| 2026-05-04 01:41 | -36.59281 | 146.38095 | 28313 ft | 454 kts | 45° |
| 2026-05-04 01:41 | -36.57428 | 146.41238 | 28574 ft | 456 kts | 45° |
| 2026-05-04 01:41 | -36.55547 | 146.44426 | 28866 ft | 458 kts | 45° |
| 2026-05-04 01:42 | -36.53653 | 146.47634 | 29172 ft | 460 kts | 45° |
| 2026-05-04 01:42 | -36.51759 | 146.50840 | 29430 ft | 462 kts | 45° |
| 2026-05-04 01:42 | -36.49851 | 146.54064 | 29733 ft | 463 kts | 45° |
| 2026-05-04 01:42 | -36.47930 | 146.57308 | 29989 ft | 466 kts | 45° |
| 2026-05-04 01:43 | -36.45998 | 146.60566 | 30242 ft | 468 kts | 45° |
| 2026-05-04 01:43 | -36.44090 | 146.63782 | 30468 ft | 470 kts | 45° |
| 2026-05-04 01:43 | -36.42142 | 146.67062 | 30695 ft | 472 kts | 45° |
| 2026-05-04 01:43 | -36.40188 | 146.70351 | 30916 ft | 474 kts | 45° |
| 2026-05-04 01:44 | -36.38223 | 146.73653 | 31149 ft | 476 kts | 45° |
| 2026-05-04 01:44 | -36.36242 | 146.76977 | 31393 ft | 478 kts | 45° |
| 2026-05-04 01:44 | -36.34259 | 146.80303 | 31606 ft | 480 kts | 45° |
| 2026-05-04 01:44 | -36.32265 | 146.83645 | 31839 ft | 482 kts | 45° |
| 2026-05-04 01:45 | -36.30290 | 146.86953 | 32060 ft | 484 kts | 45° |
| 2026-05-04 01:45 | -36.28280 | 146.90313 | 32296 ft | 486 kts | 45° |
| 2026-05-04 01:45 | -36.24236 | 146.97066 | 32785 ft | 490 kts | 45° |
| 2026-05-04 01:46 | -36.22195 | 147.00473 | 33016 ft | 492 kts | 45° |
| 2026-05-04 01:46 | -36.20144 | 147.03886 | 33231 ft | 494 kts | 45° |
| 2026-05-04 01:46 | -36.18106 | 147.07275 | 33450 ft | 496 kts | 45° |
| 2026-05-04 01:46 | -36.16042 | 147.10709 | 33734 ft | 496 kts | 45° |
| 2026-05-04 01:47 | -36.13977 | 147.14147 | 33995 ft | 496 kts | 45° |
| 2026-05-04 01:47 | -36.11914 | 147.17565 | 34260 ft | 496 kts | 45° |
| 2026-05-04 01:47 | -36.09849 | 147.20984 | 34504 ft | 496 kts | 45° |
| 2026-05-04 01:47 | -36.07775 | 147.24416 | 34729 ft | 497 kts | 44° |
| 2026-05-04 01:48 | -36.05699 | 147.27852 | 34933 ft | 498 kts | 44° |
| 2026-05-04 01:48 | -36.03644 | 147.31247 | 35144 ft | 498 kts | 44° |
| 2026-05-04 01:48 | -36.01561 | 147.34686 | 35278 ft | 498 kts | 44° |
| 2026-05-04 01:48 | -35.99476 | 147.38125 | 35459 ft | 499 kts | 44° |
| 2026-05-04 01:49 | -35.97417 | 147.41517 | 35655 ft | 500 kts | 45° |
| 2026-05-04 01:49 | -35.95326 | 147.44957 | 35839 ft | 501 kts | 45° |
| 2026-05-04 01:49 | -35.93231 | 147.48404 | 36009 ft | 502 kts | 44° |
| 2026-05-04 01:49 | -35.91128 | 147.51858 | 36169 ft | 503 kts | 44° |
| 2026-05-04 01:50 | -35.89022 | 147.55312 | 36311 ft | 504 kts | 45° |
| 2026-05-04 01:50 | -35.86907 | 147.58779 | 36469 ft | 505 kts | 45° |
| 2026-05-04 01:50 | -35.84795 | 147.62238 | 36618 ft | 506 kts | 45° |
| 2026-05-04 01:50 | -35.82669 | 147.65716 | 36764 ft | 507 kts | 45° |
| 2026-05-04 01:51 | -35.80571 | 147.69143 | 36899 ft | 508 kts | 45° |
| 2026-05-04 01:51 | -35.78440 | 147.72624 | 37029 ft | 508 kts | 45° |
| 2026-05-04 01:51 | -35.74195 | 147.79549 | 37032 ft | 503 kts | 45° |
| 2026-05-04 01:52 | -35.69999 | 147.86370 | 37033 ft | 500 kts | 45° |
| 2026-05-04 01:52 | -35.65800 | 147.93189 | 37006 ft | 499 kts | 45° |
| 2026-05-04 01:53 | -35.61606 | 147.99982 | 37054 ft | 501 kts | 45° |
| 2026-05-04 01:53 | -35.57379 | 148.06823 | 37045 ft | 501 kts | 45° |
| 2026-05-04 01:54 | -35.53174 | 148.13608 | 37047 ft | 501 kts | 45° |
| 2026-05-04 01:54 | -35.48936 | 148.20434 | 37043 ft | 503 kts | 45° |
| 2026-05-04 01:55 | -35.44741 | 148.27182 | 37044 ft | 502 kts | 45° |
| 2026-05-04 01:55 | -35.40491 | 148.33999 | 37046 ft | 502 kts | 45° |
| 2026-05-04 01:56 | -35.36242 | 148.40806 | 37029 ft | 502 kts | 45° |
| 2026-05-04 01:56 | -35.31969 | 148.47633 | 37048 ft | 504 kts | 45° |
| 2026-05-04 01:57 | -35.27719 | 148.54416 | 37059 ft | 504 kts | 45° |
| 2026-05-04 01:57 | -35.23440 | 148.61228 | 37046 ft | 504 kts | 45° |
| 2026-05-04 01:58 | -35.19889 | 148.66871 | 37040 ft | 505 kts | 45° |
| 2026-05-04 01:58 | -35.15593 | 148.73687 | 37041 ft | 506 kts | 45° |
| 2026-05-04 01:59 | -35.11292 | 148.80498 | 37041 ft | 504 kts | 45° |
| 2026-05-04 01:59 | -35.07019 | 148.87252 | 37037 ft | 504 kts | 45° |
| 2026-05-04 02:00 | -35.01998 | 148.95166 | 37037 ft | 506 kts | 45° |
| 2026-05-04 02:00 | -34.98403 | 149.00829 | 37040 ft | 507 kts | 45° |
| 2026-05-04 02:01 | -34.94071 | 149.07633 | 37040 ft | 506 kts | 45° |
| 2026-05-04 02:01 | -34.89767 | 149.14383 | 37049 ft | 507 kts | 45° |
| 2026-05-04 02:02 | -34.87599 | 149.17775 | 36936 ft | 509 kts | 45° |
| 2026-05-04 02:02 | -34.85421 | 149.21185 | 36618 ft | 507 kts | 45° |
| 2026-05-04 02:02 | -34.83254 | 149.24577 | 36315 ft | 505 kts | 45° |
| 2026-05-04 02:02 | -34.81123 | 149.27903 | 36027 ft | 504 kts | 45° |
| 2026-05-04 02:03 | -34.78967 | 149.31265 | 35835 ft | 503 kts | 45° |
| 2026-05-04 02:03 | -34.76808 | 149.34626 | 35556 ft | 502 kts | 45° |
| 2026-05-04 02:03 | -34.74656 | 149.37988 | 35238 ft | 502 kts | 47° |
| 2026-05-04 02:03 | -34.72826 | 149.41589 | 35081 ft | 506 kts | 56° |
| 2026-05-04 02:04 | -34.71209 | 149.45403 | 34946 ft | 506 kts | 57° |
| 2026-05-04 02:04 | -34.69599 | 149.49172 | 34557 ft | 506 kts | 56° |
| 2026-05-04 02:04 | -34.67928 | 149.52956 | 34072 ft | 506 kts | 56° |
| 2026-05-04 02:04 | -34.66265 | 149.56711 | 33628 ft | 503 kts | 56° |
| 2026-05-04 02:05 | -34.64611 | 149.60508 | 32976 ft | 506 kts | 57° |
| 2026-05-04 02:05 | -34.62974 | 149.64282 | 32361 ft | 506 kts | 57° |
| 2026-05-04 02:05 | -34.61337 | 149.68015 | 31720 ft | 505 kts | 57° |
| 2026-05-04 02:05 | -34.59681 | 149.71769 | 31103 ft | 505 kts | 57° |
| 2026-05-04 02:06 | -34.58025 | 149.75540 | 30647 ft | 502 kts | 57° |
| 2026-05-04 02:06 | -34.56403 | 149.79248 | 29674 ft | 491 kts | 57° |
| 2026-05-04 02:06 | -34.54812 | 149.82870 | 28668 ft | 479 kts | 57° |
| 2026-05-04 02:06 | -34.53273 | 149.86355 | 27487 ft | 472 kts | 56° |
| 2026-05-04 02:07 | -34.51724 | 149.89855 | 26290 ft | 467 kts | 56° |
| 2026-05-04 02:07 | -34.50195 | 149.93322 | 25195 ft | 461 kts | 56° |
| 2026-05-04 02:07 | -34.48704 | 149.96702 | 24150 ft | 456 kts | 56° |
| 2026-05-04 02:07 | -34.47210 | 150.00078 | 23048 ft | 450 kts | 56° |
| 2026-05-04 02:08 | -34.45748 | 150.03374 | 21944 ft | 442 kts | 56° |
| 2026-05-04 02:08 | -34.44304 | 150.06635 | 20943 ft | 434 kts | 56° |
| 2026-05-04 02:08 | -34.42884 | 150.09835 | 19962 ft | 426 kts | 56° |
| 2026-05-04 02:08 | -34.41487 | 150.12980 | 19024 ft | 418 kts | 56° |
| 2026-05-04 02:09 | -34.40135 | 150.16021 | 18075 ft | 410 kts | 56° |
| 2026-05-04 02:09 | -34.38784 | 150.19052 | 17082 ft | 404 kts | 56° |
| 2026-05-04 02:09 | -34.37469 | 150.22000 | 16153 ft | 399 kts | 56° |
| 2026-05-04 02:09 | -34.36162 | 150.24942 | 15221 ft | 394 kts | 56° |
| 2026-05-04 02:10 | -34.34864 | 150.27855 | 14358 ft | 388 kts | 56° |
| 2026-05-04 02:10 | -34.33584 | 150.30716 | 13534 ft | 384 kts | 56° |
| 2026-05-04 02:10 | -34.32318 | 150.33545 | 12587 ft | 378 kts | 56° |
| 2026-05-04 02:10 | -34.31082 | 150.36304 | 11608 ft | 375 kts | 56° |
| 2026-05-04 02:11 | -34.29839 | 150.39092 | 10716 ft | 373 kts | 57° |
| 2026-05-04 02:11 | -34.28621 | 150.41818 | 9782 ft | 369 kts | 56° |
| 2026-05-04 02:11 | -34.27402 | 150.44535 | 8839 ft | 365 kts | 56° |
| 2026-05-04 02:11 | -34.26213 | 150.47195 | 8163 ft | 354 kts | 56° |
| 2026-05-04 02:12 | -34.25065 | 150.49776 | 7931 ft | 341 kts | 56° |
| 2026-05-04 02:12 | -34.23984 | 150.52202 | 7916 ft | 316 kts | 55° |
| 2026-05-04 02:12 | -34.22944 | 150.54514 | 7922 ft | 307 kts | 55° |
| 2026-05-04 02:12 | -34.21962 | 150.56708 | 7927 ft | 288 kts | 54° |
| 2026-05-04 02:13 | -34.21034 | 150.58780 | 7922 ft | 275 kts | 54° |
| 2026-05-04 02:13 | -34.20143 | 150.60763 | 7674 ft | 264 kts | 54° |
| 2026-05-04 02:13 | -34.19271 | 150.62698 | 7355 ft | 260 kts | 53° |
| 2026-05-04 02:13 | -34.18422 | 150.64583 | 6879 ft | 256 kts | 54° |
| 2026-05-04 02:14 | -34.17581 | 150.66458 | 6325 ft | 251 kts | 54° |
| 2026-05-04 02:14 | -34.16760 | 150.68293 | 5972 ft | 243 kts | 52° |
| 2026-05-04 02:14 | -34.15939 | 150.70105 | 5950 ft | 246 kts | 53° |
| 2026-05-04 02:14 | -34.15111 | 150.71937 | 5949 ft | 249 kts | 53° |
| 2026-05-04 02:15 | -34.14290 | 150.73762 | 5943 ft | 250 kts | 53° |
| 2026-05-04 02:15 | -34.13457 | 150.75616 | 5930 ft | 249 kts | 54° |
| 2026-05-04 02:15 | -34.12635 | 150.77446 | 5935 ft | 245 kts | 54° |
| 2026-05-04 02:15 | -34.11832 | 150.79224 | 5951 ft | 242 kts | 54° |
| 2026-05-04 02:16 | -34.11041 | 150.80978 | 5934 ft | 233 kts | 54° |
| 2026-05-04 02:16 | -34.10263 | 150.82700 | 5936 ft | 233 kts | 53° |
| 2026-05-04 02:16 | -34.09491 | 150.84407 | 5929 ft | 233 kts | 54° |
| 2026-05-04 02:16 | -34.08713 | 150.86133 | 5927 ft | 232 kts | 54° |
| 2026-05-04 02:17 | -34.07953 | 150.87830 | 5678 ft | 232 kts | 54° |
| 2026-05-04 02:17 | -34.07199 | 150.89514 | 5296 ft | 221 kts | 54° |
| 2026-05-04 02:17 | -34.06486 | 150.91103 | 4965 ft | 211 kts | 53° |
| 2026-05-04 02:17 | -34.05783 | 150.92653 | 4618 ft | 209 kts | 53° |
| 2026-05-04 02:18 | -34.05097 | 150.94172 | 4288 ft | 209 kts | 53° |
| 2026-05-04 02:18 | -34.04407 | 150.95700 | 3951 ft | 204 kts | 53° |
| 2026-05-04 02:18 | -34.03740 | 150.97179 | 3583 ft | 201 kts | 53° |
| 2026-05-04 02:18 | -34.03072 | 150.98659 | 3230 ft | 199 kts | 54° |
| 2026-05-04 02:19 | -34.02773 | 151.00320 | 2766 ft | 214 kts | 95° |
| 2026-05-04 02:19 | -34.03375 | 151.01927 | 2544 ft | 211 kts | 132° |
| 2026-05-04 02:19 | -34.04377 | 151.03183 | 2699 ft | 213 kts | 135° |
| 2026-05-04 02:19 | -34.05437 | 151.04473 | 2857 ft | 218 kts | 134° |
| 2026-05-04 02:20 | -34.06486 | 151.05794 | 2997 ft | 217 kts | 133° |
| 2026-05-04 02:20 | -34.07523 | 151.07109 | 2948 ft | 215 kts | 134° |
| 2026-05-04 02:20 | -34.08786 | 151.07989 | 2941 ft | 206 kts | 175° |
| 2026-05-04 02:20 | -34.10182 | 151.08328 | 3061 ft | 208 kts | 174° |
| 2026-05-04 02:21 | -34.11559 | 151.08654 | 2960 ft | 198 kts | 173° |
| 2026-05-04 02:21 | -34.12902 | 151.08996 | 2951 ft | 198 kts | 173° |
| 2026-05-04 02:21 | -34.14247 | 151.09347 | 2956 ft | 197 kts | 173° |
| 2026-05-04 02:21 | -34.15588 | 151.09695 | 2960 ft | 198 kts | 172° |
| 2026-05-04 02:22 | -34.16935 | 151.10046 | 2947 ft | 196 kts | 173° |
| 2026-05-04 02:22 | -34.18259 | 151.10386 | 2959 ft | 199 kts | 173° |
| 2026-05-04 02:22 | -34.19606 | 151.10743 | 2943 ft | 198 kts | 168° |
| 2026-05-04 02:22 | -34.20774 | 151.11621 | 2754 ft | 201 kts | 124° |
| 2026-05-04 02:23 | -34.21250 | 151.13121 | 2365 ft | 190 kts | 83° |
| 2026-05-04 02:23 | -34.20831 | 151.14602 | 2053 ft | 181 kts | 39° |
| 2026-05-04 02:23 | -34.19803 | 151.15252 | 2226 ft | 162 kts | 2° |
| 2026-05-04 02:23 | -34.18766 | 151.15740 | 2502 ft | 176 kts | 37° |
| 2026-05-04 02:24 | -34.18172 | 151.17122 | 2734 ft | 196 kts | 73° |
| 2026-05-04 02:24 | -34.17957 | 151.18758 | 2989 ft | 199 kts | 75° |
| 2026-05-04 02:24 | -34.17760 | 151.20437 | 3036 ft | 202 kts | 72° |
| 2026-05-04 02:24 | -34.17233 | 151.21887 | 2899 ft | 182 kts | 34° |
| 2026-05-04 02:25 | -34.16235 | 151.22720 | 3011 ft | 175 kts | 15° |
| 2026-05-04 02:25 | -34.15081 | 151.22873 | 3000 ft | 160 kts | 354° |
| 2026-05-04 02:25 | -34.14006 | 151.22689 | 2947 ft | 150 kts | 343° |
| 2026-05-04 02:25 | -34.12990 | 151.22466 | 2938 ft | 149 kts | 338° |
| 2026-05-04 02:26 | -34.11970 | 151.22225 | 2968 ft | 150 kts | 343° |
| 2026-05-04 02:26 | -34.10941 | 151.21937 | 2877 ft | 153 kts | 346° |
| 2026-05-04 02:26 | -34.09906 | 151.21648 | 2520 ft | 151 kts | 346° |
| 2026-05-04 02:26 | -34.08881 | 151.21376 | 2085 ft | 152 kts | 341° |
| 2026-05-04 02:27 | -34.07840 | 151.21110 | 1678 ft | 157 kts | 346° |
| 2026-05-04 02:27 | -34.06735 | 151.20815 | 1464 ft | 168 kts | 346° |
| 2026-05-04 02:27 | -34.05612 | 151.20518 | 1413 ft | 163 kts | 346° |
| 2026-05-04 02:27 | -34.04493 | 151.20219 | 1327 ft | 165 kts | 348° |
| 2026-05-04 02:28 | -34.03383 | 151.19927 | 1239 ft | 165 kts | 347° |
| 2026-05-04 02:28 | -34.02248 | 151.19628 | 1139 ft | 166 kts | 348° |
| 2026-05-04 02:28 | -34.01140 | 151.19331 | 1002 ft | 164 kts | 347° |
| 2026-05-04 02:28 | -34.00011 | 151.19035 | 791 ft | 170 kts | 350° |
| 2026-05-04 02:29 | -33.98867 | 151.18726 | 573 ft | 169 kts | 347° |
| 2026-05-04 02:29 | -33.97722 | 151.18433 | 323 ft | 166 kts | 348° |
| 2026-05-04 02:29 | -33.96594 | 151.18122 | 125 ft | 166 kts | 346° |
| 2026-05-04 02:29 | -33.95512 | 151.17832 | 34 ft | 142 kts | 353° |
| 2026-05-04 02:30 | -33.94710 | 151.17627 | 33 ft | 98 kts | 346° |
| 2026-05-04 02:30 | -33.94135 | 151.17469 | 31 ft | 75 kts | 347° |
| 2026-05-04 02:30 | -33.93891 | 151.17314 | 31 ft | 16 kts | 283° |
| 2026-05-04 02:30 | -33.93898 | 151.17277 | 30 ft | 0 kts | 238° |